sensor_id;sensor_type;location;lat;lon;timestamp;P1;P2;P0
62054;PMS5003;48653;51.742;-1.256;2023-11-21T00:03:46;1;1;
62054;PMS5003;48653;51.742;-1.256;2023-11-21T00:06:11;5;4;
62054;PMS5003;48653;51.742;-1.256;2023-11-21T00:08:37;4;4;
62054;PMS5003;48653;51.742;-1.256;2023-11-21T00:11:02;5;5;
62054;PMS5003;48653;51.742;-1.256;2023-11-21T00:13:27;6;6;
62054;PMS5003;48653;51.742;-1.256;2023-11-21T00:15:52;5;3;
62054;PMS5003;48653;51.742;-1.256;2023-11-21T00:18:17;5;5;
62054;PMS5003;48653;51.742;-1.256;2023-11-21T00:20:42;5;5;
62054;PMS5003;48653;51.742;-1.256;2023-11-21T00:23:07;4;3;
62054;PMS5003;48653;51.742;-1.256;2023-11-21T00:25:32;5;5;
62054;PMS5003;48653;51.742;-1.256;2023-11-21T00:27:57;4;4;
62054;PMS5003;48653;51.742;-1.256;2023-11-21T00:30:22;5;4;
62054;PMS5003;48653;51.742;-1.256;2023-11-21T00:32:47;4;4;
62054;PMS5003;48653;51.742;-1.256;2023-11-21T00:35:13;5;5;
62054;PMS5003;48653;51.742;-1.256;2023-11-21T00:37:38;4;4;
62054;PMS5003;48653;51.742;-1.256;2023-11-21T00:40:03;5;4;
62054;PMS5003;48653;51.742;-1.256;2023-11-21T00:42:28;6;6;
62054;PMS5003;48653;51.742;-1.256;2023-11-21T00:44:53;5;5;
62054;PMS5003;48653;51.742;-1.256;2023-11-21T00:47:18;7;7;
62054;PMS5003;48653;51.742;-1.256;2023-11-21T00:49:43;7;5;
62054;PMS5003;48653;51.742;-1.256;2023-11-21T00:52:08;7;7;
62054;PMS5003;48653;51.742;-1.256;2023-11-21T00:54:33;6;6;
62054;PMS5003;48653;51.742;-1.256;2023-11-21T00:56:58;6;6;
62054;PMS5003;48653;51.742;-1.256;2023-11-21T00:59:23;9;5;
62054;PMS5003;48653;51.742;-1.256;2023-11-21T01:01:48;7;7;
62054;PMS5003;48653;51.742;-1.256;2023-11-21T01:04:13;8;8;
62054;PMS5003;48653;51.742;-1.256;2023-11-21T01:06:38;9;8;
62054;PMS5003;48653;51.742;-1.256;2023-11-21T01:09:04;8;8;
62054;PMS5003;48653;51.742;-1.256;2023-11-21T01:11:29;10;8;
62054;PMS5003;48653;51.742;-1.256;2023-11-21T01:13:54;8;8;
62054;PMS5003;48653;51.742;-1.256;2023-11-21T01:16:19;6;6;
62054;PMS5003;48653;51.742;-1.256;2023-11-21T01:18:44;8;8;
62054;PMS5003;48653;51.742;-1.256;2023-11-21T01:21:09;9;9;
62054;PMS5003;48653;51.742;-1.256;2023-11-21T01:23:34;8;8;
62054;PMS5003;48653;51.742;-1.256;2023-11-21T01:25:59;11;10;
62054;PMS5003;48653;51.742;-1.256;2023-11-21T01:28:24;12;9;
62054;PMS5003;48653;51.742;-1.256;2023-11-21T01:30:49;9;8;
62054;PMS5003;48653;51.742;-1.256;2023-11-21T01:35:40;10;9;
62054;PMS5003;48653;51.742;-1.256;2023-11-21T01:38:05;11;11;
62054;PMS5003;48653;51.742;-1.256;2023-11-21T01:40:30;10;9;
62054;PMS5003;48653;51.742;-1.256;2023-11-21T01:42:55;10;10;
62054;PMS5003;48653;51.742;-1.256;2023-11-21T01:45:20;11;11;
62054;PMS5003;48653;51.742;-1.256;2023-11-21T01:47:45;10;10;
62054;PMS5003;48653;51.742;-1.256;2023-11-21T01:50:12;12;11;
62054;PMS5003;48653;51.742;-1.256;2023-11-21T01:52:36;12;9;
62054;PMS5003;48653;51.742;-1.256;2023-11-21T01:55:02;12;12;
62054;PMS5003;48653;51.742;-1.256;2023-11-21T01:57:27;16;12;
62054;PMS5003;48653;51.742;-1.256;2023-11-21T01:59:53;10;9;
62054;PMS5003;48653;51.742;-1.256;2023-11-21T02:02:18;14;10;
62054;PMS5003;48653;51.742;-1.256;2023-11-21T02:04:43;11;11;
62054;PMS5003;48653;51.742;-1.256;2023-11-21T02:07:09;14;13;
62054;PMS5003;48653;51.742;-1.256;2023-11-21T02:09:34;12;12;
62054;PMS5003;48653;51.742;-1.256;2023-11-21T02:11:59;12;10;
62054;PMS5003;48653;51.742;-1.256;2023-11-21T02:14:25;11;11;
62054;PMS5003;48653;51.742;-1.256;2023-11-21T02:16:50;11;11;
62054;PMS5003;48653;51.742;-1.256;2023-11-21T02:19:16;12;10;
62054;PMS5003;48653;51.742;-1.256;2023-11-21T02:21:40;11;10;
62054;PMS5003;48653;51.742;-1.256;2023-11-21T02:24:06;16;12;
62054;PMS5003;48653;51.742;-1.256;2023-11-21T02:26:31;12;10;
62054;PMS5003;48653;51.742;-1.256;2023-11-21T02:28:57;11;11;
62054;PMS5003;48653;51.742;-1.256;2023-11-21T02:31:22;10;10;
62054;PMS5003;48653;51.742;-1.256;2023-11-21T02:33:47;14;10;
62054;PMS5003;48653;51.742;-1.256;2023-11-21T02:36:12;9;9;
62054;PMS5003;48653;51.742;-1.256;2023-11-21T02:38:37;9;9;
62054;PMS5003;48653;51.742;-1.256;2023-11-21T02:41:03;13;10;
62054;PMS5003;48653;51.742;-1.256;2023-11-21T02:43:27;11;10;
62054;PMS5003;48653;51.742;-1.256;2023-11-21T02:45:53;8;8;
62054;PMS5003;48653;51.742;-1.256;2023-11-21T02:48:18;11;11;
62054;PMS5003;48653;51.742;-1.256;2023-11-21T02:50:43;11;11;
62054;PMS5003;48653;51.742;-1.256;2023-11-21T02:53:08;12;11;
62054;PMS5003;48653;51.742;-1.256;2023-11-21T02:55:33;8;7;
62054;PMS5003;48653;51.742;-1.256;2023-11-21T02:57:59;8;7;
62054;PMS5003;48653;51.742;-1.256;2023-11-21T03:00:23;9;8;
62054;PMS5003;48653;51.742;-1.256;2023-11-21T03:02:49;11;10;
62054;PMS5003;48653;51.742;-1.256;2023-11-21T03:05:14;9;9;
62054;PMS5003;48653;51.742;-1.256;2023-11-21T03:07:39;10;10;
62054;PMS5003;48653;51.742;-1.256;2023-11-21T03:10:04;13;11;
62054;PMS5003;48653;51.742;-1.256;2023-11-21T03:12:29;11;11;
62054;PMS5003;48653;51.742;-1.256;2023-11-21T03:17:20;10;9;
62054;PMS5003;48653;51.742;-1.256;2023-11-21T03:19:45;10;8;
62054;PMS5003;48653;51.742;-1.256;2023-11-21T03:22:10;9;9;
62054;PMS5003;48653;51.742;-1.256;2023-11-21T03:24:36;12;12;
62054;PMS5003;48653;51.742;-1.256;2023-11-21T03:27:01;13;13;
62054;PMS5003;48653;51.742;-1.256;2023-11-21T03:29:26;10;10;
62054;PMS5003;48653;51.742;-1.256;2023-11-21T03:31:51;10;10;
62054;PMS5003;48653;51.742;-1.256;2023-11-21T03:34:23;8;8;
62054;PMS5003;48653;51.742;-1.256;2023-11-21T03:36:43;9;9;
62054;PMS5003;48653;51.742;-1.256;2023-11-21T03:39:07;11;10;
62054;PMS5003;48653;51.742;-1.256;2023-11-21T03:41:33;11;11;
62054;PMS5003;48653;51.742;-1.256;2023-11-21T03:43:58;10;9;
62054;PMS5003;48653;51.742;-1.256;2023-11-21T03:46:23;9;9;
62054;PMS5003;48653;51.742;-1.256;2023-11-21T03:48:48;9;9;
62054;PMS5003;48653;51.742;-1.256;2023-11-21T03:51:14;11;10;
62054;PMS5003;48653;51.742;-1.256;2023-11-21T03:53:39;9;7;
62054;PMS5003;48653;51.742;-1.256;2023-11-21T03:56:04;8;8;
62054;PMS5003;48653;51.742;-1.256;2023-11-21T03:58:29;10;9;
62054;PMS5003;48653;51.742;-1.256;2023-11-21T04:00:56;7;7;
62054;PMS5003;48653;51.742;-1.256;2023-11-21T04:03:20;7;7;
62054;PMS5003;48653;51.742;-1.256;2023-11-21T04:05:45;8;8;
62054;PMS5003;48653;51.742;-1.256;2023-11-21T04:08:10;10;9;
62054;PMS5003;48653;51.742;-1.256;2023-11-21T04:10:35;6;6;
62054;PMS5003;48653;51.742;-1.256;2023-11-21T04:13:00;8;7;
62054;PMS5003;48653;51.742;-1.256;2023-11-21T04:15:25;5;5;
62054;PMS5003;48653;51.742;-1.256;2023-11-21T04:17:51;4;4;
62054;PMS5003;48653;51.742;-1.256;2023-11-21T04:20:16;5;4;
62054;PMS5003;48653;51.742;-1.256;2023-11-21T04:22:41;5;5;
62054;PMS5003;48653;51.742;-1.256;2023-11-21T04:25:07;5;5;
62054;PMS5003;48653;51.742;-1.256;2023-11-21T04:27:31;5;5;
62054;PMS5003;48653;51.742;-1.256;2023-11-21T04:29:56;6;5;
62054;PMS5003;48653;51.742;-1.256;2023-11-21T04:32:21;4;4;
62054;PMS5003;48653;51.742;-1.256;2023-11-21T04:34:46;3;3;
62054;PMS5003;48653;51.742;-1.256;2023-11-21T04:37:11;3;3;
62054;PMS5003;48653;51.742;-1.256;2023-11-21T04:39:36;4;4;
62054;PMS5003;48653;51.742;-1.256;2023-11-21T04:42:01;3;3;
62054;PMS5003;48653;51.742;-1.256;2023-11-21T04:44:26;4;4;
62054;PMS5003;48653;51.742;-1.256;2023-11-21T04:46:51;6;3;
62054;PMS5003;48653;51.742;-1.256;2023-11-21T04:49:17;3;3;
62054;PMS5003;48653;51.742;-1.256;2023-11-21T04:51:41;2;1;
62054;PMS5003;48653;51.742;-1.256;2023-11-21T04:54:07;4;4;
62054;PMS5003;48653;51.742;-1.256;2023-11-21T04:56:32;3;3;
62054;PMS5003;48653;51.742;-1.256;2023-11-21T04:58:57;0;0;
62054;PMS5003;48653;51.742;-1.256;2023-11-21T05:01:22;3;3;
62054;PMS5003;48653;51.742;-1.256;2023-11-21T05:03:47;2;2;
62054;PMS5003;48653;51.742;-1.256;2023-11-21T05:06:12;2;2;
62054;PMS5003;48653;51.742;-1.256;2023-11-21T05:08:37;2;2;
62054;PMS5003;48653;51.742;-1.256;2023-11-21T05:11:02;2;2;
62054;PMS5003;48653;51.742;-1.256;2023-11-21T05:13:27;3;3;
62054;PMS5003;48653;51.742;-1.256;2023-11-21T05:15:52;4;3;
62054;PMS5003;48653;51.742;-1.256;2023-11-21T05:18:17;4;4;
62054;PMS5003;48653;51.742;-1.256;2023-11-21T05:20:42;3;3;
62054;PMS5003;48653;51.742;-1.256;2023-11-21T05:23:07;2;2;
62054;PMS5003;48653;51.742;-1.256;2023-11-21T05:25:33;3;2;
62054;PMS5003;48653;51.742;-1.256;2023-11-21T05:27:57;2;2;
62054;PMS5003;48653;51.742;-1.256;2023-11-21T05:30:22;3;1;
62054;PMS5003;48653;51.742;-1.256;2023-11-21T05:32:47;3;1;
62054;PMS5003;48653;51.742;-1.256;2023-11-21T05:35:12;1;0;
62054;PMS5003;48653;51.742;-1.256;2023-11-21T05:37:38;1;1;
62054;PMS5003;48653;51.742;-1.256;2023-11-21T05:40:03;1;1;
62054;PMS5003;48653;51.742;-1.256;2023-11-21T05:42:28;0;0;
62054;PMS5003;48653;51.742;-1.256;2023-11-21T05:44:53;0;0;
62054;PMS5003;48653;51.742;-1.256;2023-11-21T05:47:18;1;1;
62054;PMS5003;48653;51.742;-1.256;2023-11-21T05:49:43;1;1;
62054;PMS5003;48653;51.742;-1.256;2023-11-21T05:52:08;0;0;
62054;PMS5003;48653;51.742;-1.256;2023-11-21T05:54:33;1;1;
62054;PMS5003;48653;51.742;-1.256;2023-11-21T05:56:59;0;0;
62054;PMS5003;48653;51.742;-1.256;2023-11-21T05:59:23;0;0;
62054;PMS5003;48653;51.742;-1.256;2023-11-21T06:01:48;2;0;
62054;PMS5003;48653;51.742;-1.256;2023-11-21T06:04:13;2;1;
62054;PMS5003;48653;51.742;-1.256;2023-11-21T06:06:38;0;0;
62054;PMS5003;48653;51.742;-1.256;2023-11-21T06:09:03;1;1;
62054;PMS5003;48653;51.742;-1.256;2023-11-21T06:11:28;1;1;
62054;PMS5003;48653;51.742;-1.256;2023-11-21T06:13:53;1;1;
62054;PMS5003;48653;51.742;-1.256;2023-11-21T06:16:18;1;1;
62054;PMS5003;48653;51.742;-1.256;2023-11-21T06:18:44;0;0;
62054;PMS5003;48653;51.742;-1.256;2023-11-21T06:21:09;1;1;
62054;PMS5003;48653;51.742;-1.256;2023-11-21T06:23:34;4;4;
62054;PMS5003;48653;51.742;-1.256;2023-11-21T06:26:01;6;2;
62054;PMS5003;48653;51.742;-1.256;2023-11-21T06:28:24;2;1;
62054;PMS5003;48653;51.742;-1.256;2023-11-21T06:30:49;2;1;
62054;PMS5003;48653;51.742;-1.256;2023-11-21T06:33:14;1;1;
62054;PMS5003;48653;51.742;-1.256;2023-11-21T06:35:39;1;1;
62054;PMS5003;48653;51.742;-1.256;2023-11-21T06:38:05;1;0;
62054;PMS5003;48653;51.742;-1.256;2023-11-21T06:40:30;0;0;
62054;PMS5003;48653;51.742;-1.256;2023-11-21T06:42:55;0;0;
62054;PMS5003;48653;51.742;-1.256;2023-11-21T06:45:20;1;1;
62054;PMS5003;48653;51.742;-1.256;2023-11-21T06:47:45;1;0;
62054;PMS5003;48653;51.742;-1.256;2023-11-21T06:50:10;0;0;
62054;PMS5003;48653;51.742;-1.256;2023-11-21T06:52:35;0;0;
62054;PMS5003;48653;51.742;-1.256;2023-11-21T06:55:00;2;1;
62054;PMS5003;48653;51.742;-1.256;2023-11-21T06:57:25;1;0;
62054;PMS5003;48653;51.742;-1.256;2023-11-21T06:59:50;1;0;
62054;PMS5003;48653;51.742;-1.256;2023-11-21T07:02:15;1;0;
62054;PMS5003;48653;51.742;-1.256;2023-11-21T07:04:40;1;1;
62054;PMS5003;48653;51.742;-1.256;2023-11-21T07:07:06;1;1;
62054;PMS5003;48653;51.742;-1.256;2023-11-21T07:09:31;1;1;
62054;PMS5003;48653;51.742;-1.256;2023-11-21T07:11:56;1;1;
62054;PMS5003;48653;51.742;-1.256;2023-11-21T07:14:21;3;1;
62054;PMS5003;48653;51.742;-1.256;2023-11-21T07:16:46;2;2;
62054;PMS5003;48653;51.742;-1.256;2023-11-21T07:19:11;3;1;
62054;PMS5003;48653;51.742;-1.256;2023-11-21T07:21:36;2;2;
62054;PMS5003;48653;51.742;-1.256;2023-11-21T07:24:01;3;2;
62054;PMS5003;48653;51.742;-1.256;2023-11-21T07:26:26;1;1;
62054;PMS5003;48653;51.742;-1.256;2023-11-21T07:28:51;1;1;
62054;PMS5003;48653;51.742;-1.256;2023-11-21T07:31:16;1;1;
62054;PMS5003;48653;51.742;-1.256;2023-11-21T07:33:41;2;1;
62054;PMS5003;48653;51.742;-1.256;2023-11-21T07:36:07;2;2;
62054;PMS5003;48653;51.742;-1.256;2023-11-21T07:38:31;3;2;
62054;PMS5003;48653;51.742;-1.256;2023-11-21T07:40:56;1;1;
62054;PMS5003;48653;51.742;-1.256;2023-11-21T07:43:21;1;1;
62054;PMS5003;48653;51.742;-1.256;2023-11-21T07:45:46;1;1;
62054;PMS5003;48653;51.742;-1.256;2023-11-21T07:48:11;1;1;
62054;PMS5003;48653;51.742;-1.256;2023-11-21T07:50:37;3;1;
62054;PMS5003;48653;51.742;-1.256;2023-11-21T07:53:02;1;1;
62054;PMS5003;48653;51.742;-1.256;2023-11-21T07:55:27;1;1;
62054;PMS5003;48653;51.742;-1.256;2023-11-21T07:57:52;1;1;
62054;PMS5003;48653;51.742;-1.256;2023-11-21T08:00:17;2;2;
62054;PMS5003;48653;51.742;-1.256;2023-11-21T08:02:42;2;2;
62054;PMS5003;48653;51.742;-1.256;2023-11-21T08:05:07;1;1;
62054;PMS5003;48653;51.742;-1.256;2023-11-21T08:07:32;0;0;
62054;PMS5003;48653;51.742;-1.256;2023-11-21T08:09:57;2;1;
62054;PMS5003;48653;51.742;-1.256;2023-11-21T08:12:22;2;1;
62054;PMS5003;48653;51.742;-1.256;2023-11-21T08:14:47;2;2;
62054;PMS5003;48653;51.742;-1.256;2023-11-21T08:17:12;2;2;
62054;PMS5003;48653;51.742;-1.256;2023-11-21T08:19:37;5;2;
62054;PMS5003;48653;51.742;-1.256;2023-11-21T08:22:03;3;3;
62054;PMS5003;48653;51.742;-1.256;2023-11-21T08:24:27;3;3;
62054;PMS5003;48653;51.742;-1.256;2023-11-21T08:26:53;3;2;
62054;PMS5003;48653;51.742;-1.256;2023-11-21T08:29:18;2;2;
62054;PMS5003;48653;51.742;-1.256;2023-11-21T08:31:43;2;2;
62054;PMS5003;48653;51.742;-1.256;2023-11-21T08:34:12;4;3;
62054;PMS5003;48653;51.742;-1.256;2023-11-21T08:36:33;2;2;
62054;PMS5003;48653;51.742;-1.256;2023-11-21T08:38:58;3;3;
62054;PMS5003;48653;51.742;-1.256;2023-11-21T08:41:23;3;3;
62054;PMS5003;48653;51.742;-1.256;2023-11-21T08:43:49;4;4;
62054;PMS5003;48653;51.742;-1.256;2023-11-21T08:46:13;2;2;
62054;PMS5003;48653;51.742;-1.256;2023-11-21T08:48:38;3;3;
62054;PMS5003;48653;51.742;-1.256;2023-11-21T08:51:04;3;3;
62054;PMS5003;48653;51.742;-1.256;2023-11-21T08:53:28;3;3;
62054;PMS5003;48653;51.742;-1.256;2023-11-21T08:55:53;1;1;
62054;PMS5003;48653;51.742;-1.256;2023-11-21T08:58:18;2;2;
62054;PMS5003;48653;51.742;-1.256;2023-11-21T09:00:44;2;2;
62054;PMS5003;48653;51.742;-1.256;2023-11-21T09:03:09;4;4;
62054;PMS5003;48653;51.742;-1.256;2023-11-21T09:05:34;2;2;
62054;PMS5003;48653;51.742;-1.256;2023-11-21T09:07:59;1;1;
62054;PMS5003;48653;51.742;-1.256;2023-11-21T09:10:24;3;3;
62054;PMS5003;48653;51.742;-1.256;2023-11-21T09:12:49;4;3;
62054;PMS5003;48653;51.742;-1.256;2023-11-21T09:15:14;4;3;
62054;PMS5003;48653;51.742;-1.256;2023-11-21T09:17:39;2;2;
62054;PMS5003;48653;51.742;-1.256;2023-11-21T09:20:06;5;2;
62054;PMS5003;48653;51.742;-1.256;2023-11-21T09:22:29;2;2;
62054;PMS5003;48653;51.742;-1.256;2023-11-21T09:24:54;5;3;
62054;PMS5003;48653;51.742;-1.256;2023-11-21T09:27:19;7;3;
62054;PMS5003;48653;51.742;-1.256;2023-11-21T09:29:44;3;3;
62054;PMS5003;48653;51.742;-1.256;2023-11-21T09:32:10;4;4;
62054;PMS5003;48653;51.742;-1.256;2023-11-21T09:34:34;3;2;
62054;PMS5003;48653;51.742;-1.256;2023-11-21T09:37:00;3;3;
62054;PMS5003;48653;51.742;-1.256;2023-11-21T09:39:25;3;2;
62054;PMS5003;48653;51.742;-1.256;2023-11-21T09:41:50;4;3;
62054;PMS5003;48653;51.742;-1.256;2023-11-21T09:44:17;3;2;
62054;PMS5003;48653;51.742;-1.256;2023-11-21T09:46:40;1;1;
62054;PMS5003;48653;51.742;-1.256;2023-11-21T09:49:05;3;3;
62054;PMS5003;48653;51.742;-1.256;2023-11-21T09:51:30;2;2;
62054;PMS5003;48653;51.742;-1.256;2023-11-21T09:53:55;5;3;
62054;PMS5003;48653;51.742;-1.256;2023-11-21T09:56:21;2;2;
62054;PMS5003;48653;51.742;-1.256;2023-11-21T09:58:46;3;3;
62054;PMS5003;48653;51.742;-1.256;2023-11-21T10:01:11;2;2;
62054;PMS5003;48653;51.742;-1.256;2023-11-21T10:03:36;4;3;
62054;PMS5003;48653;51.742;-1.256;2023-11-21T10:06:01;2;2;
62054;PMS5003;48653;51.742;-1.256;2023-11-21T10:08:26;2;2;
62054;PMS5003;48653;51.742;-1.256;2023-11-21T10:10:52;4;4;
62054;PMS5003;48653;51.742;-1.256;2023-11-21T10:13:16;3;3;
62054;PMS5003;48653;51.742;-1.256;2023-11-21T10:15:42;2;1;
62054;PMS5003;48653;51.742;-1.256;2023-11-21T10:18:06;3;2;
62054;PMS5003;48653;51.742;-1.256;2023-11-21T10:20:32;3;2;
62054;PMS5003;48653;51.742;-1.256;2023-11-21T10:22:56;2;1;
62054;PMS5003;48653;51.742;-1.256;2023-11-21T10:25:21;4;1;
62054;PMS5003;48653;51.742;-1.256;2023-11-21T10:27:47;3;3;
62054;PMS5003;48653;51.742;-1.256;2023-11-21T10:30:12;4;2;
62054;PMS5003;48653;51.742;-1.256;2023-11-21T10:32:37;4;3;
62054;PMS5003;48653;51.742;-1.256;2023-11-21T10:35:02;2;2;
62054;PMS5003;48653;51.742;-1.256;2023-11-21T10:37:27;2;2;
62054;PMS5003;48653;51.742;-1.256;2023-11-21T10:39:55;3;3;
62054;PMS5003;48653;51.742;-1.256;2023-11-21T10:42:18;3;3;
62054;PMS5003;48653;51.742;-1.256;2023-11-21T10:44:42;4;3;
62054;PMS5003;48653;51.742;-1.256;2023-11-21T10:47:08;2;2;
62054;PMS5003;48653;51.742;-1.256;2023-11-21T10:49:32;4;2;
62054;PMS5003;48653;51.742;-1.256;2023-11-21T10:51:57;2;2;
62054;PMS5003;48653;51.742;-1.256;2023-11-21T10:54:23;1;1;
62054;PMS5003;48653;51.742;-1.256;2023-11-21T10:56:49;1;1;
62054;PMS5003;48653;51.742;-1.256;2023-11-21T10:59:12;3;1;
62054;PMS5003;48653;51.742;-1.256;2023-11-21T11:01:37;3;1;
62054;PMS5003;48653;51.742;-1.256;2023-11-21T11:04:02;1;1;
62054;PMS5003;48653;51.742;-1.256;2023-11-21T11:06:27;1;1;
62054;PMS5003;48653;51.742;-1.256;2023-11-21T11:08:52;0;0;
62054;PMS5003;48653;51.742;-1.256;2023-11-21T11:11:18;1;1;
62054;PMS5003;48653;51.742;-1.256;2023-11-21T11:13:43;1;1;
62054;PMS5003;48653;51.742;-1.256;2023-11-21T11:16:08;1;0;
62054;PMS5003;48653;51.742;-1.256;2023-11-21T11:18:33;0;0;
62054;PMS5003;48653;51.742;-1.256;2023-11-21T11:21:00;0;0;
62054;PMS5003;48653;51.742;-1.256;2023-11-21T11:23:29;1;0;
62054;PMS5003;48653;51.742;-1.256;2023-11-21T11:25:53;1;1;
62054;PMS5003;48653;51.742;-1.256;2023-11-21T11:28:14;0;0;
62054;PMS5003;48653;51.742;-1.256;2023-11-21T11:30:41;0;0;
62054;PMS5003;48653;51.742;-1.256;2023-11-21T11:33:05;4;1;
62054;PMS5003;48653;51.742;-1.256;2023-11-21T11:35:30;0;0;
62054;PMS5003;48653;51.742;-1.256;2023-11-21T11:37:53;1;1;
62054;PMS5003;48653;51.742;-1.256;2023-11-21T11:40:18;3;2;
62054;PMS5003;48653;51.742;-1.256;2023-11-21T11:47:34;2;1;
62054;PMS5003;48653;51.742;-1.256;2023-11-21T11:50:02;4;2;
62054;PMS5003;48653;51.742;-1.256;2023-11-21T11:52:37;0;0;
62054;PMS5003;48653;51.742;-1.256;2023-11-21T11:54:49;0;0;
62054;PMS5003;48653;51.742;-1.256;2023-11-21T11:57:14;2;1;
62054;PMS5003;48653;51.742;-1.256;2023-11-21T12:02:04;2;2;
62054;PMS5003;48653;51.742;-1.256;2023-11-21T12:04:29;2;1;
62054;PMS5003;48653;51.742;-1.256;2023-11-21T12:06:54;3;2;
62054;PMS5003;48653;51.742;-1.256;2023-11-21T12:09:19;1;1;
62054;PMS5003;48653;51.742;-1.256;2023-11-21T12:11:44;1;1;
62054;PMS5003;48653;51.742;-1.256;2023-11-21T12:14:09;2;2;
62054;PMS5003;48653;51.742;-1.256;2023-11-21T12:16:34;2;2;
62054;PMS5003;48653;51.742;-1.256;2023-11-21T12:19:00;2;1;
62054;PMS5003;48653;51.742;-1.256;2023-11-21T12:21:24;3;3;
62054;PMS5003;48653;51.742;-1.256;2023-11-21T12:23:49;3;2;
62054;PMS5003;48653;51.742;-1.256;2023-11-21T12:26:14;3;1;
62054;PMS5003;48653;51.742;-1.256;2023-11-21T12:28:39;3;1;
62054;PMS5003;48653;51.742;-1.256;2023-11-21T12:31:05;4;3;
62054;PMS5003;48653;51.742;-1.256;2023-11-21T12:33:29;1;1;
62054;PMS5003;48653;51.742;-1.256;2023-11-21T12:35:54;3;0;
62054;PMS5003;48653;51.742;-1.256;2023-11-21T12:38:20;1;0;
62054;PMS5003;48653;51.742;-1.256;2023-11-21T12:40:44;1;1;
62054;PMS5003;48653;51.742;-1.256;2023-11-21T12:43:09;2;0;
62054;PMS5003;48653;51.742;-1.256;2023-11-21T12:45:34;1;1;
62054;PMS5003;48653;51.742;-1.256;2023-11-21T12:48:00;1;1;
62054;PMS5003;48653;51.742;-1.256;2023-11-21T12:50:25;1;1;
62054;PMS5003;48653;51.742;-1.256;2023-11-21T12:52:50;1;1;
62054;PMS5003;48653;51.742;-1.256;2023-11-21T12:55:15;1;0;
62054;PMS5003;48653;51.742;-1.256;2023-11-21T12:57:41;2;2;
62054;PMS5003;48653;51.742;-1.256;2023-11-21T13:00:05;2;2;
62054;PMS5003;48653;51.742;-1.256;2023-11-21T13:02:30;0;0;
62054;PMS5003;48653;51.742;-1.256;2023-11-21T13:04:56;1;1;
62054;PMS5003;48653;51.742;-1.256;2023-11-21T13:07:20;3;0;
62054;PMS5003;48653;51.742;-1.256;2023-11-21T13:09:45;2;1;
62054;PMS5003;48653;51.742;-1.256;2023-11-21T13:14:35;5;2;
62054;PMS5003;48653;51.742;-1.256;2023-11-21T13:17:00;0;0;
62054;PMS5003;48653;51.742;-1.256;2023-11-21T13:19:25;1;1;
62054;PMS5003;48653;51.742;-1.256;2023-11-21T13:21:50;2;1;
62054;PMS5003;48653;51.742;-1.256;2023-11-21T13:24:15;2;0;
62054;PMS5003;48653;51.742;-1.256;2023-11-21T13:26:40;4;3;
62054;PMS5003;48653;51.742;-1.256;2023-11-21T13:29:05;3;1;
62054;PMS5003;48653;51.742;-1.256;2023-11-21T13:31:31;1;1;
62054;PMS5003;48653;51.742;-1.256;2023-11-21T13:33:56;2;2;
62054;PMS5003;48653;51.742;-1.256;2023-11-21T13:36:21;4;2;
62054;PMS5003;48653;51.742;-1.256;2023-11-21T13:38:47;8;3;
62054;PMS5003;48653;51.742;-1.256;2023-11-21T13:41:11;4;4;
62054;PMS5003;48653;51.742;-1.256;2023-11-21T13:43:36;7;3;
62054;PMS5003;48653;51.742;-1.256;2023-11-21T13:46:01;7;5;
62054;PMS5003;48653;51.742;-1.256;2023-11-21T13:48:27;5;5;
62054;PMS5003;48653;51.742;-1.256;2023-11-21T13:50:52;5;4;
62054;PMS5003;48653;51.742;-1.256;2023-11-21T13:53:17;1;1;
62054;PMS5003;48653;51.742;-1.256;2023-11-21T13:55:42;2;1;
62054;PMS5003;48653;51.742;-1.256;2023-11-21T13:58:07;3;1;
62054;PMS5003;48653;51.742;-1.256;2023-11-21T14:00:32;3;1;
62054;PMS5003;48653;51.742;-1.256;2023-11-21T14:02:57;5;3;
62054;PMS5003;48653;51.742;-1.256;2023-11-21T14:05:22;3;2;
62054;PMS5003;48653;51.742;-1.256;2023-11-21T14:07:47;3;2;
62054;PMS5003;48653;51.742;-1.256;2023-11-21T14:10:12;2;2;
62054;PMS5003;48653;51.742;-1.256;2023-11-21T14:12:38;3;2;
62054;PMS5003;48653;51.742;-1.256;2023-11-21T14:15:03;4;2;
62054;PMS5003;48653;51.742;-1.256;2023-11-21T14:17:28;2;2;
62054;PMS5003;48653;51.742;-1.256;2023-11-21T14:19:53;5;1;
62054;PMS5003;48653;51.742;-1.256;2023-11-21T14:22:18;4;4;
62054;PMS5003;48653;51.742;-1.256;2023-11-21T14:24:43;3;2;
62054;PMS5003;48653;51.742;-1.256;2023-11-21T14:27:08;5;3;
62054;PMS5003;48653;51.742;-1.256;2023-11-21T14:29:33;8;3;
62054;PMS5003;48653;51.742;-1.256;2023-11-21T14:31:59;5;5;
62054;PMS5003;48653;51.742;-1.256;2023-11-21T14:34:24;2;2;
62054;PMS5003;48653;51.742;-1.256;2023-11-21T14:36:49;1;1;
62054;PMS5003;48653;51.742;-1.256;2023-11-21T14:39:14;5;3;
62054;PMS5003;48653;51.742;-1.256;2023-11-21T14:41:39;2;2;
62054;PMS5003;48653;51.742;-1.256;2023-11-21T14:44:04;2;1;
62054;PMS5003;48653;51.742;-1.256;2023-11-21T14:46:30;4;2;
62054;PMS5003;48653;51.742;-1.256;2023-11-21T14:48:54;5;3;
62054;PMS5003;48653;51.742;-1.256;2023-11-21T14:51:20;4;4;
62054;PMS5003;48653;51.742;-1.256;2023-11-21T14:53:45;3;3;
62054;PMS5003;48653;51.742;-1.256;2023-11-21T14:56:10;3;3;
62054;PMS5003;48653;51.742;-1.256;2023-11-21T14:58:35;6;3;
62054;PMS5003;48653;51.742;-1.256;2023-11-21T15:01:00;4;2;
62054;PMS5003;48653;51.742;-1.256;2023-11-21T15:03:25;6;3;
62054;PMS5003;48653;51.742;-1.256;2023-11-21T15:05:50;5;2;
62054;PMS5003;48653;51.742;-1.256;2023-11-21T15:08:15;3;3;
62054;PMS5003;48653;51.742;-1.256;2023-11-21T15:10:40;1;1;
62054;PMS5003;48653;51.742;-1.256;2023-11-21T15:13:05;4;3;
62054;PMS5003;48653;51.742;-1.256;2023-11-21T15:15:30;7;4;
62054;PMS5003;48653;51.742;-1.256;2023-11-21T15:17:56;3;3;
62054;PMS5003;48653;51.742;-1.256;2023-11-21T15:20:21;3;3;
62054;PMS5003;48653;51.742;-1.256;2023-11-21T15:22:46;6;4;
62054;PMS5003;48653;51.742;-1.256;2023-11-21T15:25:11;4;3;
62054;PMS5003;48653;51.742;-1.256;2023-11-21T15:27:36;2;2;
62054;PMS5003;48653;51.742;-1.256;2023-11-21T15:30:02;7;5;
62054;PMS5003;48653;51.742;-1.256;2023-11-21T15:32:26;7;3;
62054;PMS5003;48653;51.742;-1.256;2023-11-21T15:34:51;2;2;
62054;PMS5003;48653;51.742;-1.256;2023-11-21T15:37:16;3;3;
62054;PMS5003;48653;51.742;-1.256;2023-11-21T15:39:41;5;5;
62054;PMS5003;48653;51.742;-1.256;2023-11-21T15:42:06;5;4;
62054;PMS5003;48653;51.742;-1.256;2023-11-21T15:44:31;4;3;
62054;PMS5003;48653;51.742;-1.256;2023-11-21T15:46:56;3;3;
62054;PMS5003;48653;51.742;-1.256;2023-11-21T15:49:22;5;5;
62054;PMS5003;48653;51.742;-1.256;2023-11-21T15:51:48;3;3;
62054;PMS5003;48653;51.742;-1.256;2023-11-21T15:54:12;4;3;
62054;PMS5003;48653;51.742;-1.256;2023-11-21T15:59:03;3;3;
62054;PMS5003;48653;51.742;-1.256;2023-11-21T16:01:28;5;3;
62054;PMS5003;48653;51.742;-1.256;2023-11-21T16:03:53;2;2;
62054;PMS5003;48653;51.742;-1.256;2023-11-21T16:06:18;1;1;
62054;PMS5003;48653;51.742;-1.256;2023-11-21T16:08:43;2;2;
62054;PMS5003;48653;51.742;-1.256;2023-11-21T16:11:08;3;1;
62054;PMS5003;48653;51.742;-1.256;2023-11-21T16:13:33;2;1;
62054;PMS5003;48653;51.742;-1.256;2023-11-21T16:16:04;4;1;
62054;PMS5003;48653;51.742;-1.256;2023-11-21T16:18:23;1;1;
62054;PMS5003;48653;51.742;-1.256;2023-11-21T16:20:48;2;0;
62054;PMS5003;48653;51.742;-1.256;2023-11-21T16:23:13;1;0;
62054;PMS5003;48653;51.742;-1.256;2023-11-21T16:25:38;5;1;
62054;PMS5003;48653;51.742;-1.256;2023-11-21T16:28:04;4;3;
62054;PMS5003;48653;51.742;-1.256;2023-11-21T16:30:28;3;2;
62054;PMS5003;48653;51.742;-1.256;2023-11-21T16:32:53;1;1;
62054;PMS5003;48653;51.742;-1.256;2023-11-21T16:35:19;1;1;